sensor_id;sensor_type;location;lat;lon;timestamp;P1;durP1;ratioP1;P2;durP2;ratioP2
6121;SDS011;3091;51.506;7.672;2023-12-28T00:01:22;29.50;;;27.90;;
6121;SDS011;3091;51.506;7.672;2023-12-28T00:03:48;28.90;;;27.40;;
6121;SDS011;3091;51.506;7.672;2023-12-28T00:06:15;31.37;;;29.87;;
6121;SDS011;3091;51.506;7.672;2023-12-28T00:08:41;55.63;;;52.83;;
6121;SDS011;3091;51.506;7.672;2023-12-28T00:11:07;61.23;;;58.23;;
6121;SDS011;3091;51.506;7.672;2023-12-28T00:13:33;93.00;;;88.90;;
6121;SDS011;3091;51.506;7.672;2023-12-28T00:15:59;107.00;;;102.30;;
6121;SDS011;3091;51.506;7.672;2023-12-28T00:18:25;95.07;;;90.77;;
6121;SDS011;3091;51.506;7.672;2023-12-28T00:20:51;103.53;;;98.73;;
6121;SDS011;3091;51.506;7.672;2023-12-28T00:23:17;104.10;;;99.30;;
6121;SDS011;3091;51.506;7.672;2023-12-28T00:25:45;104.57;;;99.57;;
6121;SDS011;3091;51.506;7.672;2023-12-28T00:28:11;107.17;;;102.13;;
6121;SDS011;3091;51.506;7.672;2023-12-28T00:30:37;105.90;;;100.90;;
6121;SDS011;3091;51.506;7.672;2023-12-28T00:33:03;104.40;;;99.60;;
6121;SDS011;3091;51.506;7.672;2023-12-28T00:35:31;100.13;;;94.70;;
6121;SDS011;3091;51.506;7.672;2023-12-28T00:37:57;102.10;;;97.30;;
6121;SDS011;3091;51.506;7.672;2023-12-28T00:40:23;98.67;;;93.80;;
6121;SDS011;3091;51.506;7.672;2023-12-28T00:42:49;95.17;;;90.47;;
6121;SDS011;3091;51.506;7.672;2023-12-28T00:45:15;89.53;;;84.90;;
6121;SDS011;3091;51.506;7.672;2023-12-28T00:47:41;89.83;;;85.13;;
6121;SDS011;3091;51.506;7.672;2023-12-28T00:50:08;84.47;;;79.67;;
6121;SDS011;3091;51.506;7.672;2023-12-28T00:52:36;84.47;;;79.57;;
6121;SDS011;3091;51.506;7.672;2023-12-28T00:55:02;77.70;;;73.40;;
6121;SDS011;3091;51.506;7.672;2023-12-28T00:57:29;78.77;;;74.23;;
6121;SDS011;3091;51.506;7.672;2023-12-28T00:59:55;70.50;;;66.50;;
6121;SDS011;3091;51.506;7.672;2023-12-28T01:02:21;70.57;;;66.57;;
6121;SDS011;3091;51.506;7.672;2023-12-28T01:04:47;68.70;;;64.80;;
6121;SDS011;3091;51.506;7.672;2023-12-28T01:07:15;66.87;;;63.07;;
6121;SDS011;3091;51.506;7.672;2023-12-28T01:09:41;70.00;;;66.10;;
6121;SDS011;3091;51.506;7.672;2023-12-28T01:12:07;66.97;;;63.17;;
6121;SDS011;3091;51.506;7.672;2023-12-28T01:14:33;70.33;;;66.23;;
6121;SDS011;3091;51.506;7.672;2023-12-28T01:16:59;67.33;;;63.53;;
6121;SDS011;3091;51.506;7.672;2023-12-28T01:19:25;61.83;;;58.33;;
6121;SDS011;3091;51.506;7.672;2023-12-28T01:21:51;52.80;;;49.80;;
6121;SDS011;3091;51.506;7.672;2023-12-28T01:24:17;43.20;;;40.70;;
6121;SDS011;3091;51.506;7.672;2023-12-28T01:26:43;33.33;;;31.07;;
6121;SDS011;3091;51.506;7.672;2023-12-28T01:29:09;23.70;;;22.40;;
6121;SDS011;3091;51.506;7.672;2023-12-28T01:31:35;23.40;;;22.10;;
6121;SDS011;3091;51.506;7.672;2023-12-28T01:34:03;22.60;;;21.40;;
6121;SDS011;3091;51.506;7.672;2023-12-28T01:36:29;22.83;;;21.63;;
6121;SDS011;3091;51.506;7.672;2023-12-28T01:38:56;22.60;;;21.40;;
6121;SDS011;3091;51.506;7.672;2023-12-28T01:41:22;23.33;;;22.03;;
6121;SDS011;3091;51.506;7.672;2023-12-28T01:43:48;22.60;;;21.40;;
6121;SDS011;3091;51.506;7.672;2023-12-28T01:46:15;23.13;;;21.83;;
6121;SDS011;3091;51.506;7.672;2023-12-28T01:48:42;23.10;;;21.90;;
6121;SDS011;3091;51.506;7.672;2023-12-28T01:51:08;22.40;;;21.10;;
6121;SDS011;3091;51.506;7.672;2023-12-28T01:53:35;22.60;;;21.40;;
6121;SDS011;3091;51.506;7.672;2023-12-28T01:56:01;22.37;;;21.17;;
6121;SDS011;3091;51.506;7.672;2023-12-28T01:58:27;22.00;;;20.70;;
6121;SDS011;3091;51.506;7.672;2023-12-28T02:00:55;22.00;;;20.90;;
6121;SDS011;3091;51.506;7.672;2023-12-28T02:03:24;21.60;;;20.50;;
6121;SDS011;3091;51.506;7.672;2023-12-28T02:05:51;21.60;;;20.60;;
6121;SDS011;3091;51.506;7.672;2023-12-28T02:08:20;20.60;;;19.60;;
6121;SDS011;3091;51.506;7.672;2023-12-28T02:10:46;20.87;;;19.90;;
6121;SDS011;3091;51.506;7.672;2023-12-28T02:13:12;21.13;;;20.13;;
6121;SDS011;3091;51.506;7.672;2023-12-28T02:15:38;21.33;;;20.33;;
6121;SDS011;3091;51.506;7.672;2023-12-28T02:18:11;20.67;;;19.77;;
6121;SDS011;3091;51.506;7.672;2023-12-28T02:20:38;20.57;;;19.67;;
6121;SDS011;3091;51.506;7.672;2023-12-28T02:23:05;20.77;;;19.87;;
6121;SDS011;3091;51.506;7.672;2023-12-28T02:25:31;21.27;;;20.07;;
6121;SDS011;3091;51.506;7.672;2023-12-28T02:27:58;21.17;;;20.10;;
6121;SDS011;3091;51.506;7.672;2023-12-28T02:30:24;20.67;;;19.47;;
6121;SDS011;3091;51.506;7.672;2023-12-28T02:33:02;19.10;;;18.30;;
6121;SDS011;3091;51.506;7.672;2023-12-28T02:35:29;18.83;;;18.03;;
6121;SDS011;3091;51.506;7.672;2023-12-28T02:38:01;19.30;;;18.50;;
6121;SDS011;3091;51.506;7.672;2023-12-28T02:40:28;19.77;;;18.87;;
6121;SDS011;3091;51.506;7.672;2023-12-28T02:42:56;19.20;;;18.40;;
6121;SDS011;3091;51.506;7.672;2023-12-28T02:45:22;19.50;;;18.60;;
6121;SDS011;3091;51.506;7.672;2023-12-28T02:47:48;19.00;;;18.20;;
6121;SDS011;3091;51.506;7.672;2023-12-28T02:50:14;18.87;;;18.07;;
6121;SDS011;3091;51.506;7.672;2023-12-28T02:52:40;19.07;;;18.17;;
6121;SDS011;3091;51.506;7.672;2023-12-28T02:55:06;19.10;;;18.10;;
6121;SDS011;3091;51.506;7.672;2023-12-28T02:57:32;19.33;;;18.23;;
6121;SDS011;3091;51.506;7.672;2023-12-28T03:00:02;18.93;;;17.90;;
6121;SDS011;3091;51.506;7.672;2023-12-28T03:02:29;18.80;;;18.00;;
6121;SDS011;3091;51.506;7.672;2023-12-28T03:04:55;19.40;;;18.40;;
6121;SDS011;3091;51.506;7.672;2023-12-28T03:07:21;19.90;;;19.00;;
6121;SDS011;3091;51.506;7.672;2023-12-28T03:09:47;19.77;;;18.87;;
6121;SDS011;3091;51.506;7.672;2023-12-28T03:12:13;19.53;;;18.73;;
6121;SDS011;3091;51.506;7.672;2023-12-28T03:14:41;19.20;;;18.40;;
6121;SDS011;3091;51.506;7.672;2023-12-28T03:17:09;19.57;;;18.67;;
6121;SDS011;3091;51.506;7.672;2023-12-28T03:19:37;19.50;;;18.70;;
6121;SDS011;3091;51.506;7.672;2023-12-28T03:22:03;19.43;;;18.63;;
6121;SDS011;3091;51.506;7.672;2023-12-28T03:24:29;19.90;;;19.00;;
6121;SDS011;3091;51.506;7.672;2023-12-28T03:26:55;19.73;;;18.83;;
6121;SDS011;3091;51.506;7.672;2023-12-28T03:29:21;19.33;;;18.53;;
6121;SDS011;3091;51.506;7.672;2023-12-28T03:31:47;19.40;;;18.50;;
6121;SDS011;3091;51.506;7.672;2023-12-28T03:34:13;19.83;;;18.90;;
6121;SDS011;3091;51.506;7.672;2023-12-28T03:36:39;19.90;;;19.00;;
6121;SDS011;3091;51.506;7.672;2023-12-28T03:39:05;19.57;;;18.67;;
6121;SDS011;3091;51.506;7.672;2023-12-28T03:41:31;19.70;;;18.80;;
6121;SDS011;3091;51.506;7.672;2023-12-28T03:43:57;18.90;;;18.10;;
6121;SDS011;3091;51.506;7.672;2023-12-28T03:46:23;19.40;;;18.60;;
6121;SDS011;3091;51.506;7.672;2023-12-28T03:48:49;19.80;;;18.90;;
6121;SDS011;3091;51.506;7.672;2023-12-28T03:51:15;19.43;;;18.53;;
6121;SDS011;3091;51.506;7.672;2023-12-28T03:53:42;19.40;;;18.60;;
6121;SDS011;3091;51.506;7.672;2023-12-28T03:56:17;19.30;;;18.50;;
6121;SDS011;3091;51.506;7.672;2023-12-28T03:58:43;20.10;;;19.30;;
6121;SDS011;3091;51.506;7.672;2023-12-28T04:01:09;20.03;;;19.13;;
6121;SDS011;3091;51.506;7.672;2023-12-28T04:03:35;19.40;;;18.50;;
6121;SDS011;3091;51.506;7.672;2023-12-28T04:06:01;19.50;;;18.70;;
6121;SDS011;3091;51.506;7.672;2023-12-28T04:08:27;19.90;;;19.10;;
6121;SDS011;3091;51.506;7.672;2023-12-28T04:10:54;19.60;;;18.80;;
6121;SDS011;3091;51.506;7.672;2023-12-28T04:13:20;19.70;;;18.90;;
6121;SDS011;3091;51.506;7.672;2023-12-28T04:15:46;20.30;;;19.40;;
6121;SDS011;3091;51.506;7.672;2023-12-28T04:18:12;19.60;;;18.80;;
6121;SDS011;3091;51.506;7.672;2023-12-28T04:20:37;19.57;;;18.73;;
6121;SDS011;3091;51.506;7.672;2023-12-28T04:23:03;19.53;;;18.70;;
6121;SDS011;3091;51.506;7.672;2023-12-28T04:25:29;19.67;;;18.77;;
6121;SDS011;3091;51.506;7.672;2023-12-28T04:27:56;19.60;;;18.80;;
6121;SDS011;3091;51.506;7.672;2023-12-28T04:30:22;19.70;;;18.90;;
6121;SDS011;3091;51.506;7.672;2023-12-28T04:32:48;19.33;;;18.53;;
6121;SDS011;3091;51.506;7.672;2023-12-28T04:35:14;19.23;;;18.43;;
6121;SDS011;3091;51.506;7.672;2023-12-28T04:37:42;19.87;;;19.07;;
6121;SDS011;3091;51.506;7.672;2023-12-28T04:40:08;19.57;;;18.77;;
6121;SDS011;3091;51.506;7.672;2023-12-28T04:42:35;20.47;;;19.47;;
6121;SDS011;3091;51.506;7.672;2023-12-28T04:45:01;19.83;;;19.00;;
6121;SDS011;3091;51.506;7.672;2023-12-28T04:47:27;20.40;;;19.50;;
6121;SDS011;3091;51.506;7.672;2023-12-28T04:49:53;19.63;;;18.80;;
6121;SDS011;3091;51.506;7.672;2023-12-28T04:52:19;19.20;;;18.40;;
6121;SDS011;3091;51.506;7.672;2023-12-28T04:54:45;19.77;;;18.93;;
6121;SDS011;3091;51.506;7.672;2023-12-28T04:57:11;19.10;;;18.30;;
6121;SDS011;3091;51.506;7.672;2023-12-28T04:59:40;19.40;;;18.60;;
6121;SDS011;3091;51.506;7.672;2023-12-28T05:02:06;20.90;;;19.60;;
6121;SDS011;3091;51.506;7.672;2023-12-28T05:04:32;19.97;;;19.07;;
6121;SDS011;3091;51.506;7.672;2023-12-28T05:06:58;19.10;;;18.30;;
6121;SDS011;3091;51.506;7.672;2023-12-28T05:09:24;19.60;;;18.80;;
6121;SDS011;3091;51.506;7.672;2023-12-28T05:11:50;19.37;;;18.57;;
6121;SDS011;3091;51.506;7.672;2023-12-28T05:14:16;19.10;;;18.30;;
6121;SDS011;3091;51.506;7.672;2023-12-28T05:16:42;20.00;;;19.13;;
6121;SDS011;3091;51.506;7.672;2023-12-28T05:19:08;19.13;;;18.27;;
6121;SDS011;3091;51.506;7.672;2023-12-28T05:21:34;18.43;;;17.67;;
6121;SDS011;3091;51.506;7.672;2023-12-28T05:24:00;18.63;;;17.83;;
6121;SDS011;3091;51.506;7.672;2023-12-28T05:26:26;18.40;;;17.70;;
6121;SDS011;3091;51.506;7.672;2023-12-28T05:28:52;18.47;;;17.77;;
6121;SDS011;3091;51.506;7.672;2023-12-28T05:31:18;19.13;;;18.23;;
6121;SDS011;3091;51.506;7.672;2023-12-28T05:33:44;18.20;;;17.40;;
6121;SDS011;3091;51.506;7.672;2023-12-28T05:36:10;18.70;;;18.00;;
6121;SDS011;3091;51.506;7.672;2023-12-28T05:38:36;18.43;;;17.73;;
6121;SDS011;3091;51.506;7.672;2023-12-28T05:41:02;18.47;;;17.77;;
6121;SDS011;3091;51.506;7.672;2023-12-28T05:43:28;18.43;;;17.73;;
6121;SDS011;3091;51.506;7.672;2023-12-28T05:45:54;18.30;;;17.60;;
6121;SDS011;3091;51.506;7.672;2023-12-28T05:48:20;18.60;;;17.90;;
6121;SDS011;3091;51.506;7.672;2023-12-28T05:50:46;18.80;;;18.00;;
6121;SDS011;3091;51.506;7.672;2023-12-28T05:53:12;19.17;;;18.33;;
6121;SDS011;3091;51.506;7.672;2023-12-28T05:55:40;18.40;;;17.70;;
6121;SDS011;3091;51.506;7.672;2023-12-28T05:58:06;18.70;;;17.90;;
6121;SDS011;3091;51.506;7.672;2023-12-28T06:00:32;18.20;;;17.33;;
6121;SDS011;3091;51.506;7.672;2023-12-28T06:02:58;20.00;;;19.07;;
6121;SDS011;3091;51.506;7.672;2023-12-28T06:05:24;18.33;;;17.63;;
6121;SDS011;3091;51.506;7.672;2023-12-28T06:07:50;18.40;;;17.60;;
6121;SDS011;3091;51.506;7.672;2023-12-28T06:10:16;18.90;;;18.10;;
6121;SDS011;3091;51.506;7.672;2023-12-28T06:12:42;18.20;;;17.50;;
6121;SDS011;3091;51.506;7.672;2023-12-28T06:15:08;17.70;;;17.00;;
6121;SDS011;3091;51.506;7.672;2023-12-28T06:17:34;18.40;;;17.70;;
6121;SDS011;3091;51.506;7.672;2023-12-28T06:20:00;18.63;;;17.93;;
6121;SDS011;3091;51.506;7.672;2023-12-28T06:22:27;18.50;;;17.80;;
6121;SDS011;3091;51.506;7.672;2023-12-28T06:24:54;18.10;;;17.40;;
6121;SDS011;3091;51.506;7.672;2023-12-28T06:27:22;18.40;;;17.70;;
6121;SDS011;3091;51.506;7.672;2023-12-28T06:29:48;17.90;;;17.20;;
6121;SDS011;3091;51.506;7.672;2023-12-28T06:32:14;18.40;;;17.70;;
6121;SDS011;3091;51.506;7.672;2023-12-28T06:34:40;18.60;;;17.90;;
6121;SDS011;3091;51.506;7.672;2023-12-28T06:37:06;19.23;;;18.43;;
6121;SDS011;3091;51.506;7.672;2023-12-28T06:39:32;18.70;;;17.90;;
6121;SDS011;3091;51.506;7.672;2023-12-28T06:41:58;18.27;;;17.57;;
6121;SDS011;3091;51.506;7.672;2023-12-28T06:44:24;19.00;;;18.20;;
6121;SDS011;3091;51.506;7.672;2023-12-28T06:46:50;18.27;;;17.57;;
6121;SDS011;3091;51.506;7.672;2023-12-28T06:49:16;18.70;;;18.00;;
6121;SDS011;3091;51.506;7.672;2023-12-28T06:51:42;19.17;;;18.30;;
6121;SDS011;3091;51.506;7.672;2023-12-28T06:54:11;18.60;;;17.90;;
6121;SDS011;3091;51.506;7.672;2023-12-28T06:56:37;18.50;;;17.80;;
6121;SDS011;3091;51.506;7.672;2023-12-28T06:59:03;19.00;;;18.20;;
6121;SDS011;3091;51.506;7.672;2023-12-28T07:01:29;19.30;;;18.40;;
6121;SDS011;3091;51.506;7.672;2023-12-28T07:03:55;19.53;;;18.73;;
6121;SDS011;3091;51.506;7.672;2023-12-28T07:06:21;19.30;;;18.50;;
6121;SDS011;3091;51.506;7.672;2023-12-28T07:08:47;19.00;;;18.20;;
6121;SDS011;3091;51.506;7.672;2023-12-28T07:11:13;19.37;;;18.53;;
6121;SDS011;3091;51.506;7.672;2023-12-28T07:13:39;19.23;;;18.43;;
6121;SDS011;3091;51.506;7.672;2023-12-28T07:16:05;20.17;;;19.17;;
6121;SDS011;3091;51.506;7.672;2023-12-28T07:18:32;19.30;;;18.50;;
6121;SDS011;3091;51.506;7.672;2023-12-28T07:20:58;19.60;;;18.80;;
6121;SDS011;3091;51.506;7.672;2023-12-28T07:23:25;19.60;;;18.80;;
6121;SDS011;3091;51.506;7.672;2023-12-28T07:25:59;19.73;;;18.93;;
6121;SDS011;3091;51.506;7.672;2023-12-28T07:28:25;19.80;;;18.90;;
6121;SDS011;3091;51.506;7.672;2023-12-28T07:30:51;19.70;;;18.90;;
6121;SDS011;3091;51.506;7.672;2023-12-28T07:33:17;18.63;;;17.87;;
6121;SDS011;3091;51.506;7.672;2023-12-28T07:35:43;18.30;;;17.60;;
6121;SDS011;3091;51.506;7.672;2023-12-28T07:38:09;18.47;;;17.50;;
6121;SDS011;3091;51.506;7.672;2023-12-28T07:40:35;18.13;;;17.40;;
6121;SDS011;3091;51.506;7.672;2023-12-28T07:43:01;18.90;;;18.10;;
6121;SDS011;3091;51.506;7.672;2023-12-28T07:45:27;18.20;;;17.50;;
6121;SDS011;3091;51.506;7.672;2023-12-28T07:47:53;19.03;;;18.23;;
6121;SDS011;3091;51.506;7.672;2023-12-28T07:50:19;19.37;;;17.80;;
6121;SDS011;3091;51.506;7.672;2023-12-28T07:52:46;22.03;;;21.13;;
6121;SDS011;3091;51.506;7.672;2023-12-28T07:55:14;21.93;;;21.03;;
6121;SDS011;3091;51.506;7.672;2023-12-28T07:57:40;21.90;;;20.80;;
6121;SDS011;3091;51.506;7.672;2023-12-28T08:00:07;21.63;;;20.83;;
6121;SDS011;3091;51.506;7.672;2023-12-28T08:02:33;21.30;;;20.40;;
6121;SDS011;3091;51.506;7.672;2023-12-28T08:04:59;22.10;;;21.20;;
6121;SDS011;3091;51.506;7.672;2023-12-28T08:07:25;20.73;;;19.93;;
6121;SDS011;3091;51.506;7.672;2023-12-28T08:09:51;21.17;;;20.37;;
6121;SDS011;3091;51.506;7.672;2023-12-28T08:12:18;20.67;;;19.87;;
6121;SDS011;3091;51.506;7.672;2023-12-28T08:14:46;22.50;;;21.20;;
6121;SDS011;3091;51.506;7.672;2023-12-28T08:17:12;20.70;;;19.90;;
6121;SDS011;3091;51.506;7.672;2023-12-28T08:19:38;21.10;;;20.20;;
6121;SDS011;3091;51.506;7.672;2023-12-28T08:22:04;20.70;;;19.90;;
6121;SDS011;3091;51.506;7.672;2023-12-28T08:24:30;20.80;;;19.90;;
6121;SDS011;3091;51.506;7.672;2023-12-28T08:26:57;20.43;;;19.70;;
6121;SDS011;3091;51.506;7.672;2023-12-28T08:29:24;19.43;;;18.73;;
6121;SDS011;3091;51.506;7.672;2023-12-28T08:31:50;20.00;;;19.30;;
6121;SDS011;3091;51.506;7.672;2023-12-28T08:34:17;20.37;;;19.67;;
6121;SDS011;3091;51.506;7.672;2023-12-28T08:36:43;21.63;;;20.70;;
6121;SDS011;3091;51.506;7.672;2023-12-28T08:39:09;20.10;;;19.40;;
6121;SDS011;3091;51.506;7.672;2023-12-28T08:41:35;20.70;;;19.80;;
6121;SDS011;3091;51.506;7.672;2023-12-28T08:44:01;20.30;;;19.50;;
6121;SDS011;3091;51.506;7.672;2023-12-28T08:46:27;19.63;;;18.83;;
6121;SDS011;3091;51.506;7.672;2023-12-28T08:48:54;19.63;;;18.93;;
6121;SDS011;3091;51.506;7.672;2023-12-28T08:51:20;17.57;;;16.97;;
6121;SDS011;3091;51.506;7.672;2023-12-28T08:53:46;19.17;;;18.47;;
6121;SDS011;3091;51.506;7.672;2023-12-28T08:56:13;17.90;;;17.30;;
6121;SDS011;3091;51.506;7.672;2023-12-28T08:58:39;18.07;;;17.47;;
6121;SDS011;3091;51.506;7.672;2023-12-28T09:01:05;17.40;;;16.80;;
6121;SDS011;3091;51.506;7.672;2023-12-28T09:03:31;17.83;;;17.23;;
6121;SDS011;3091;51.506;7.672;2023-12-28T09:05:57;18.03;;;17.17;;
6121;SDS011;3091;51.506;7.672;2023-12-28T09:08:23;16.90;;;16.30;;
6121;SDS011;3091;51.506;7.672;2023-12-28T09:10:49;16.40;;;15.80;;
6121;SDS011;3091;51.506;7.672;2023-12-28T09:13:15;16.70;;;16.10;;
6121;SDS011;3091;51.506;7.672;2023-12-28T09:15:45;17.30;;;16.70;;
6121;SDS011;3091;51.506;7.672;2023-12-28T09:18:11;16.97;;;16.37;;
6121;SDS011;3091;51.506;7.672;2023-12-28T09:20:37;17.27;;;16.67;;
6121;SDS011;3091;51.506;7.672;2023-12-28T09:23:03;17.43;;;16.83;;
6121;SDS011;3091;51.506;7.672;2023-12-28T09:25:29;18.43;;;17.73;;
6121;SDS011;3091;51.506;7.672;2023-12-28T09:27:57;18.20;;;17.60;;
6121;SDS011;3091;51.506;7.672;2023-12-28T09:30:23;18.33;;;17.63;;
6121;SDS011;3091;51.506;7.672;2023-12-28T09:32:49;16.60;;;16.00;;
6121;SDS011;3091;51.506;7.672;2023-12-28T09:35:18;17.20;;;16.60;;
6121;SDS011;3091;51.506;7.672;2023-12-28T09:37:44;17.27;;;16.63;;
6121;SDS011;3091;51.506;7.672;2023-12-28T09:40:12;17.30;;;16.70;;
6121;SDS011;3091;51.506;7.672;2023-12-28T09:43:01;17.70;;;17.10;;
6121;SDS011;3091;51.506;7.672;2023-12-28T09:45:25;17.47;;;16.77;;
6121;SDS011;3091;51.506;7.672;2023-12-28T09:47:51;18.03;;;17.43;;
6121;SDS011;3091;51.506;7.672;2023-12-28T09:50:18;17.03;;;16.43;;
6121;SDS011;3091;51.506;7.672;2023-12-28T09:52:45;16.90;;;16.30;;
6121;SDS011;3091;51.506;7.672;2023-12-28T09:55:11;17.47;;;16.67;;
6121;SDS011;3091;51.506;7.672;2023-12-28T09:57:37;16.67;;;16.07;;
6121;SDS011;3091;51.506;7.672;2023-12-28T10:00:05;15.40;;;14.90;;
6121;SDS011;3091;51.506;7.672;2023-12-28T10:02:32;16.10;;;15.53;;
6121;SDS011;3091;51.506;7.672;2023-12-28T10:04:58;16.60;;;15.60;;
6121;SDS011;3091;51.506;7.672;2023-12-28T10:07:24;17.03;;;16.10;;
6121;SDS011;3091;51.506;7.672;2023-12-28T10:09:52;15.40;;;14.90;;
6121;SDS011;3091;51.506;7.672;2023-12-28T10:12:18;15.60;;;15.00;;
6121;SDS011;3091;51.506;7.672;2023-12-28T10:14:44;15.43;;;14.83;;
6121;SDS011;3091;51.506;7.672;2023-12-28T10:17:10;14.40;;;13.90;;
6121;SDS011;3091;51.506;7.672;2023-12-28T10:19:36;14.20;;;13.70;;
6121;SDS011;3091;51.506;7.672;2023-12-28T10:22:03;14.53;;;14.03;;
6121;SDS011;3091;51.506;7.672;2023-12-28T10:24:29;14.30;;;13.80;;
6121;SDS011;3091;51.506;7.672;2023-12-28T10:26:56;15.90;;;15.30;;
6121;SDS011;3091;51.506;7.672;2023-12-28T10:29:24;15.10;;;14.60;;
6121;SDS011;3091;51.506;7.672;2023-12-28T10:31:51;15.10;;;14.60;;
6121;SDS011;3091;51.506;7.672;2023-12-28T10:34:18;16.10;;;15.60;;
6121;SDS011;3091;51.506;7.672;2023-12-28T10:36:44;15.80;;;15.30;;
6121;SDS011;3091;51.506;7.672;2023-12-28T10:39:11;14.93;;;14.43;;
6121;SDS011;3091;51.506;7.672;2023-12-28T10:41:38;15.40;;;14.80;;
6121;SDS011;3091;51.506;7.672;2023-12-28T10:44:06;16.50;;;15.70;;
6121;SDS011;3091;51.506;7.672;2023-12-28T10:46:33;16.20;;;15.60;;
6121;SDS011;3091;51.506;7.672;2023-12-28T10:49:12;16.10;;;15.50;;
6121;SDS011;3091;51.506;7.672;2023-12-28T10:51:43;15.97;;;15.20;;
6121;SDS011;3091;51.506;7.672;2023-12-28T10:54:23;16.40;;;15.80;;
6121;SDS011;3091;51.506;7.672;2023-12-28T11:01:58;15.80;;;15.30;;
6121;SDS011;3091;51.506;7.672;2023-12-28T11:07:09;16.63;;;15.93;;
6121;SDS011;3091;51.506;7.672;2023-12-28T11:09:37;17.53;;;16.63;;
6121;SDS011;3091;51.506;7.672;2023-12-28T11:12:04;18.20;;;17.10;;
6121;SDS011;3091;51.506;7.672;2023-12-28T11:14:33;15.80;;;15.30;;
6121;SDS011;3091;51.506;7.672;2023-12-28T11:17:00;16.20;;;15.70;;
6121;SDS011;3091;51.506;7.672;2023-12-28T11:19:27;15.50;;;15.00;;
6121;SDS011;3091;51.506;7.672;2023-12-28T11:21:53;17.13;;;16.40;;
6121;SDS011;3091;51.506;7.672;2023-12-28T11:24:21;16.50;;;16.00;;
6121;SDS011;3091;51.506;7.672;2023-12-28T11:26:53;17.87;;;16.77;;
6121;SDS011;3091;51.506;7.672;2023-12-28T11:29:22;17.10;;;16.50;;
6121;SDS011;3091;51.506;7.672;2023-12-28T11:31:55;16.80;;;16.10;;
6121;SDS011;3091;51.506;7.672;2023-12-28T11:34:28;15.50;;;15.00;;
6121;SDS011;3091;51.506;7.672;2023-12-28T11:36:55;16.30;;;15.60;;
6121;SDS011;3091;51.506;7.672;2023-12-28T11:39:41;15.60;;;15.10;;
6121;SDS011;3091;51.506;7.672;2023-12-28T11:42:12;16.13;;;15.63;;
6121;SDS011;3091;51.506;7.672;2023-12-28T11:44:41;16.33;;;15.70;;
6121;SDS011;3091;51.506;7.672;2023-12-28T11:47:21;15.53;;;15.03;;
6121;SDS011;3091;51.506;7.672;2023-12-28T11:49:47;15.90;;;15.40;;
6121;SDS011;3091;51.506;7.672;2023-12-28T11:52:26;15.90;;;15.40;;
6121;SDS011;3091;51.506;7.672;2023-12-28T11:54:52;17.77;;;16.47;;
6121;SDS011;3091;51.506;7.672;2023-12-28T11:57:18;16.03;;;15.53;;
6121;SDS011;3091;51.506;7.672;2023-12-28T11:59:44;15.43;;;14.93;;
6121;SDS011;3091;51.506;7.672;2023-12-28T12:02:10;15.90;;;15.30;;
6121;SDS011;3091;51.506;7.672;2023-12-28T12:04:36;25.90;;;16.67;;
6121;SDS011;3091;51.506;7.672;2023-12-28T12:07:03;15.40;;;14.70;;
6121;SDS011;3091;51.506;7.672;2023-12-28T12:09:29;16.67;;;16.07;;
6121;SDS011;3091;51.506;7.672;2023-12-28T12:11:59;15.87;;;15.23;;
6121;SDS011;3091;51.506;7.672;2023-12-28T12:14:26;16.27;;;15.60;;
6121;SDS011;3091;51.506;7.672;2023-12-28T12:16:53;15.37;;;14.87;;
6121;SDS011;3091;51.506;7.672;2023-12-28T12:19:22;15.67;;;15.07;;
6121;SDS011;3091;51.506;7.672;2023-12-28T12:21:50;16.40;;;15.73;;
6121;SDS011;3091;51.506;7.672;2023-12-28T12:24:17;15.93;;;15.43;;
6121;SDS011;3091;51.506;7.672;2023-12-28T12:26:45;16.23;;;15.63;;
6121;SDS011;3091;51.506;7.672;2023-12-28T12:29:11;16.00;;;15.50;;
6121;SDS011;3091;51.506;7.672;2023-12-28T12:31:37;17.13;;;16.53;;
6121;SDS011;3091;51.506;7.672;2023-12-28T12:34:05;16.47;;;15.77;;
6121;SDS011;3091;51.506;7.672;2023-12-28T12:36:31;16.40;;;15.90;;
6121;SDS011;3091;51.506;7.672;2023-12-28T12:38:57;17.63;;;16.77;;
6121;SDS011;3091;51.506;7.672;2023-12-28T12:41:23;17.20;;;16.50;;
6121;SDS011;3091;51.506;7.672;2023-12-28T12:43:49;16.70;;;16.10;;
6121;SDS011;3091;51.506;7.672;2023-12-28T12:46:15;18.00;;;17.03;;
6121;SDS011;3091;51.506;7.672;2023-12-28T12:48:41;15.80;;;15.27;;
6121;SDS011;3091;51.506;7.672;2023-12-28T12:51:07;17.00;;;16.40;;
6121;SDS011;3091;51.506;7.672;2023-12-28T12:53:36;16.67;;;15.87;;
6121;SDS011;3091;51.506;7.672;2023-12-28T12:56:02;16.63;;;16.03;;
6121;SDS011;3091;51.506;7.672;2023-12-28T12:58:37;17.17;;;16.57;;
6121;SDS011;3091;51.506;7.672;2023-12-28T13:01:03;16.40;;;15.80;;
6121;SDS011;3091;51.506;7.672;2023-12-28T13:03:29;16.03;;;15.53;;
6121;SDS011;3091;51.506;7.672;2023-12-28T13:05:55;16.70;;;15.87;;
6121;SDS011;3091;51.506;7.672;2023-12-28T13:08:21;16.67;;;16.07;;
6121;SDS011;3091;51.506;7.672;2023-12-28T13:10:47;17.10;;;16.10;;
6121;SDS011;3091;51.506;7.672;2023-12-28T13:13:14;16.93;;;16.30;;
6121;SDS011;3091;51.506;7.672;2023-12-28T13:15:40;15.53;;;14.93;;
6121;SDS011;3091;51.506;7.672;2023-12-28T13:18:06;15.57;;;15.00;;
6121;SDS011;3091;51.506;7.672;2023-12-28T13:20:33;15.17;;;14.67;;
6121;SDS011;3091;51.506;7.672;2023-12-28T13:22:59;14.70;;;14.20;;
6121;SDS011;3091;51.506;7.672;2023-12-28T13:25:25;15.93;;;15.43;;
6121;SDS011;3091;51.506;7.672;2023-12-28T13:27:54;16.17;;;15.37;;
6121;SDS011;3091;51.506;7.672;2023-12-28T13:30:28;14.97;;;14.33;;
6121;SDS011;3091;51.506;7.672;2023-12-28T13:32:54;15.00;;;14.50;;
6121;SDS011;3091;51.506;7.672;2023-12-28T13:35:24;15.47;;;14.97;;
6121;SDS011;3091;51.506;7.672;2023-12-28T13:37:50;17.07;;;16.47;;
6121;SDS011;3091;51.506;7.672;2023-12-28T13:40:16;16.27;;;15.77;;
6121;SDS011;3091;51.506;7.672;2023-12-28T13:42:42;16.87;;;16.17;;
6121;SDS011;3091;51.506;7.672;2023-12-28T13:45:08;16.80;;;16.20;;
6121;SDS011;3091;51.506;7.672;2023-12-28T13:47:34;16.50;;;15.90;;
6121;SDS011;3091;51.506;7.672;2023-12-28T13:50:00;16.30;;;15.73;;
6121;SDS011;3091;51.506;7.672;2023-12-28T13:52:26;16.73;;;16.13;;
6121;SDS011;3091;51.506;7.672;2023-12-28T13:54:52;16.50;;;16.00;;
6121;SDS011;3091;51.506;7.672;2023-12-28T13:57:19;16.87;;;16.27;;
6121;SDS011;3091;51.506;7.672;2023-12-28T13:59:44;15.80;;;15.30;;
6121;SDS011;3091;51.506;7.672;2023-12-28T14:02:10;18.00;;;16.90;;
6121;SDS011;3091;51.506;7.672;2023-12-28T14:04:36;17.30;;;16.70;;
6121;SDS011;3091;51.506;7.672;2023-12-28T14:07:02;17.10;;;16.50;;
6121;SDS011;3091;51.506;7.672;2023-12-28T14:09:28;17.57;;;16.87;;
6121;SDS011;3091;51.506;7.672;2023-12-28T14:11:55;16.60;;;15.73;;
6121;SDS011;3091;51.506;7.672;2023-12-28T14:14:21;16.90;;;16.30;;
6121;SDS011;3091;51.506;7.672;2023-12-28T14:16:47;15.93;;;15.43;;
6121;SDS011;3091;51.506;7.672;2023-12-28T14:19:13;16.07;;;15.37;;
6121;SDS011;3091;51.506;7.672;2023-12-28T14:21:39;15.97;;;15.37;;
6121;SDS011;3091;51.506;7.672;2023-12-28T14:24:05;15.73;;;15.23;;
6121;SDS011;3091;51.506;7.672;2023-12-28T14:26:32;16.13;;;15.43;;
6121;SDS011;3091;51.506;7.672;2023-12-28T14:28:59;16.80;;;16.00;;
6121;SDS011;3091;51.506;7.672;2023-12-28T14:31:28;15.10;;;14.60;;
6121;SDS011;3091;51.506;7.672;2023-12-28T14:33:54;16.63;;;16.03;;
6121;SDS011;3091;51.506;7.672;2023-12-28T14:38:46;15.77;;;15.27;;
6121;SDS011;3091;51.506;7.672;2023-12-28T14:41:12;15.80;;;15.30;;
6121;SDS011;3091;51.506;7.672;2023-12-28T14:43:38;16.30;;;15.77;;
6121;SDS011;3091;51.506;7.672;2023-12-28T14:46:04;16.60;;;15.80;;
6121;SDS011;3091;51.506;7.672;2023-12-28T14:48:30;16.03;;;15.53;;
6121;SDS011;3091;51.506;7.672;2023-12-28T14:50:56;17.00;;;16.40;;
6121;SDS011;3091;51.506;7.672;2023-12-28T14:53:23;16.67;;;15.60;;
6121;SDS011;3091;51.506;7.672;2023-12-28T14:55:51;16.40;;;15.80;;